createdAt,value
2018-12-01T00:00:34.669Z,36.00
2018-12-01T00:03:02.104Z,38.83
2018-12-01T00:05:29.294Z,38.67
2018-12-01T00:07:56.474Z,40.90
2018-12-01T00:10:23.739Z,42.70
2018-12-01T00:12:50.933Z,38.40
2018-12-01T00:15:19.737Z,40.03
2018-12-01T00:17:47.098Z,40.20
2018-12-01T00:20:15.748Z,38.27
2018-12-01T00:22:42.982Z,37.97
2018-12-01T00:25:10.206Z,40.00
2018-12-01T00:27:44.767Z,37.47
2018-12-01T00:30:14.387Z,41.37
2018-12-01T00:32:42.198Z,39.23
2018-12-01T00:35:10.322Z,39.17
2018-12-01T00:37:37.839Z,40.93
2018-12-01T00:40:16.301Z,41.23
2018-12-01T00:42:43.605Z,40.97
2018-12-01T00:45:15.823Z,36.80
2018-12-01T00:47:44.179Z,38.57
2018-12-01T00:50:12.377Z,40.73
2018-12-01T00:52:39.607Z,39.83
2018-12-01T00:55:08.561Z,43.97
2018-12-01T00:57:35.829Z,41.10
2018-12-01T01:00:05.312Z,39.23
2018-12-01T01:02:32.517Z,39.60
2018-12-01T01:05:00.043Z,41.27
2018-12-01T01:07:27.251Z,38.63
2018-12-01T01:09:54.504Z,40.47
2018-12-01T01:12:21.625Z,38.20
2018-12-01T01:14:48.804Z,41.43
2018-12-01T01:17:16.006Z,33.90
2018-12-01T01:19:43.262Z,33.57
2018-12-01T01:22:10.443Z,34.10
2018-12-01T01:24:37.684Z,35.50
2018-12-01T01:27:05.242Z,33.87
2018-12-01T01:29:32.367Z,33.37
2018-12-01T01:31:59.647Z,34.93
2018-12-01T01:34:26.957Z,33.13
2018-12-01T01:36:54.358Z,33.83
2018-12-01T01:39:21.634Z,34.53
2018-12-01T01:41:48.834Z,32.30
2018-12-01T01:44:15.965Z,34.33
2018-12-01T01:46:44.237Z,31.50
2018-12-01T01:49:11.424Z,31.93
2018-12-01T01:51:38.614Z,30.50
2018-12-01T01:54:05.848Z,29.97
2018-12-01T01:56:32.991Z,29.17
2018-12-01T01:59:00.720Z,27.33
2018-12-01T02:01:27.900Z,32.13
2018-12-01T02:03:56.080Z,27.70
2018-12-01T02:06:23.266Z,28.83
2018-12-01T02:08:50.577Z,29.80
2018-12-01T02:11:17.696Z,29.80
2018-12-01T02:13:44.816Z,30.27
2018-12-01T02:16:12.985Z,27.37
2018-12-01T02:18:40.382Z,29.83
2018-12-01T02:21:07.558Z,29.73
2018-12-01T02:23:34.751Z,29.90
2018-12-01T02:26:02.511Z,28.73
2018-12-01T02:28:29.725Z,27.80
2018-12-01T02:30:56.894Z,29.80
2018-12-01T02:33:24.134Z,28.97
2018-12-01T02:35:51.353Z,28.30
2018-12-01T02:38:18.530Z,30.07
2018-12-01T02:40:45.752Z,29.67
2018-12-01T02:43:12.933Z,28.50
2018-12-01T02:45:51.823Z,28.40
2018-12-01T02:48:19.006Z,27.67
2018-12-01T02:50:46.288Z,27.43
2018-12-01T02:53:13.567Z,29.57
2018-12-01T02:55:40.819Z,29.00
2018-12-01T02:58:08.035Z,28.77
2018-12-01T03:00:35.277Z,26.50
2018-12-01T03:03:02.536Z,25.93
2018-12-01T03:05:29.757Z,27.20
2018-12-01T03:07:56.970Z,25.07
2018-12-01T03:10:24.129Z,25.27
2018-12-01T03:12:52.378Z,27.40
2018-12-01T03:15:19.978Z,26.70
2018-12-01T03:17:47.980Z,23.70
2018-12-01T03:20:15.828Z,25.47
2018-12-01T03:22:43.026Z,24.80
2018-12-01T03:25:15.843Z,24.63
2018-12-01T03:27:44.212Z,23.40
2018-12-01T03:30:11.581Z,24.47
2018-12-01T03:32:38.819Z,25.53
2018-12-01T03:35:07.657Z,26.30
2018-12-01T03:37:34.791Z,26.40
2018-12-01T03:40:02.172Z,28.20
2018-12-01T03:42:29.314Z,27.03
2018-12-01T03:44:56.470Z,28.90
2018-12-01T03:47:23.662Z,27.27
2018-12-01T03:49:50.822Z,26.53
2018-12-01T03:52:17.965Z,27.50
2018-12-01T03:54:45.105Z,27.27
2018-12-01T03:57:16.358Z,27.00
2018-12-01T03:59:43.499Z,26.57
2018-12-01T04:02:10.738Z,27.50
2018-12-01T04:04:37.868Z,28.47
2018-12-01T04:07:05.177Z,26.97
2018-12-01T04:09:32.424Z,30.80
2018-12-01T04:11:59.740Z,30.50
2018-12-01T04:14:26.927Z,28.23
2018-12-01T04:16:54.178Z,28.97
2018-12-01T04:19:21.343Z,28.37
2018-12-01T04:21:49.725Z,29.20
2018-12-01T04:24:16.970Z,30.07
2018-12-01T04:26:46.155Z,29.43
2018-12-01T04:29:13.357Z,29.37
2018-12-01T04:31:40.505Z,30.17
2018-12-01T04:34:07.627Z,32.37
2018-12-01T04:36:34.882Z,29.67
2018-12-01T04:39:02.183Z,32.07
2018-12-01T04:41:29.359Z,30.93
2018-12-01T04:43:56.516Z,33.70
2018-12-01T04:46:23.645Z,33.53
2018-12-01T04:48:51.293Z,32.80
2018-12-01T04:51:18.474Z,31.97
2018-12-01T04:53:45.643Z,31.80
2018-12-01T04:56:14.874Z,31.07
2018-12-01T04:58:42.103Z,32.00
2018-12-01T05:01:09.427Z,31.37
2018-12-01T05:03:36.590Z,30.10
2018-12-01T05:06:04.069Z,30.50
2018-12-01T05:08:31.297Z,30.27
2018-12-01T05:10:58.512Z,32.63
2018-12-01T05:13:25.617Z,29.73
2018-12-01T05:15:52.846Z,32.00
2018-12-01T05:18:21.058Z,32.50
2018-12-01T05:20:48.270Z,31.57
2018-12-01T05:23:15.417Z,32.60
2018-12-01T05:25:42.590Z,30.57
2018-12-01T05:28:13.450Z,34.73
2018-12-01T05:30:40.647Z,33.70
2018-12-01T05:33:08.904Z,31.63
2018-12-01T05:35:36.286Z,31.83
2018-12-01T05:38:03.549Z,33.27
2018-12-01T05:40:30.859Z,32.13
2018-12-01T05:43:00.586Z,34.40
2018-12-01T05:45:27.810Z,34.57
2018-12-01T05:47:54.997Z,33.33
2018-12-01T05:50:22.899Z,33.00
2018-12-01T05:52:50.900Z,33.27
2018-12-01T05:55:18.050Z,33.17
2018-12-01T05:57:45.307Z,34.70
2018-12-01T06:00:13.667Z,36.80
2018-12-01T06:02:41.011Z,36.30
2018-12-01T06:05:09.071Z,33.33
2018-12-01T06:07:36.202Z,32.83
2018-12-01T06:10:06.575Z,32.63
2018-12-01T06:12:33.674Z,33.77
2018-12-01T06:15:08.436Z,34.40
2018-12-01T06:17:35.581Z,33.50
2018-12-01T06:20:09.782Z,32.47
2018-12-01T06:22:36.954Z,32.47
2018-12-01T06:25:09.605Z,31.80
2018-12-01T06:27:36.776Z,33.20
2018-12-01T06:30:08.643Z,31.30
2018-12-01T06:32:35.787Z,32.87
2018-12-01T06:35:03.020Z,29.67
2018-12-01T06:37:30.222Z,33.40
2018-12-01T06:39:57.393Z,30.43
2018-12-01T06:42:24.608Z,30.47
2018-12-01T06:44:51.730Z,32.67
2018-12-01T06:47:18.942Z,33.20
2018-12-01T06:49:46.137Z,31.23
2018-12-01T06:52:13.378Z,29.90
2018-12-01T06:54:40.535Z,29.80
2018-12-01T06:57:07.709Z,28.10
2018-12-01T06:59:34.871Z,30.10
2018-12-01T07:02:02.212Z,30.33
2018-12-01T07:04:30.100Z,27.03
2018-12-01T07:06:57.280Z,28.60
2018-12-01T07:09:24.494Z,28.17
2018-12-01T07:11:51.594Z,30.40
2018-12-01T07:14:25.601Z,28.00
2018-12-01T07:16:52.963Z,28.07
2018-12-01T07:19:20.116Z,30.87
2018-12-01T07:21:47.297Z,29.90
2018-12-01T07:24:14.722Z,26.60
2018-12-01T07:26:41.892Z,28.80
2018-12-01T07:29:09.086Z,29.70
2018-12-01T07:31:36.203Z,27.57
2018-12-01T07:34:03.542Z,27.93
2018-12-01T07:36:30.772Z,29.97
2018-12-01T07:38:58.054Z,28.43
2018-12-01T07:41:25.250Z,30.47
2018-12-01T07:43:53.484Z,30.43
2018-12-01T07:46:20.608Z,30.60
2018-12-01T07:48:47.851Z,29.93
2018-12-01T07:51:15.124Z,30.20
2018-12-01T07:53:42.307Z,32.10
2018-12-01T07:56:09.483Z,29.97
2018-12-01T07:58:37.801Z,29.97
2018-12-01T08:01:05.034Z,30.10
2018-12-01T08:03:32.274Z,32.90
2018-12-01T08:05:59.531Z,30.30
2018-12-01T08:08:26.931Z,32.53
2018-12-01T08:10:54.157Z,34.33
2018-12-01T08:13:21.283Z,29.83
2018-12-01T08:15:48.517Z,30.80
2018-12-01T08:18:16.294Z,32.13
2018-12-01T08:20:43.500Z,29.80
2018-12-01T08:23:10.814Z,31.70
2018-12-01T08:25:38.047Z,29.27
2018-12-01T08:28:06.827Z,31.20
2018-12-01T08:30:33.988Z,29.70
2018-12-01T08:33:01.237Z,29.30
2018-12-01T08:35:30.442Z,28.70
2018-12-01T08:37:57.934Z,25.63
2018-12-01T08:40:26.476Z,29.00
2018-12-01T08:42:53.758Z,27.67
2018-12-01T08:45:20.976Z,26.03
2018-12-01T08:47:48.200Z,28.30
2018-12-01T08:50:16.930Z,26.30
2018-12-01T08:52:44.238Z,26.87
2018-12-01T08:55:14.037Z,25.57
2018-12-01T08:57:41.846Z,29.63
2018-12-01T09:00:14.551Z,24.60
2018-12-01T09:02:41.915Z,26.57
2018-12-01T09:05:09.785Z,25.73
2018-12-01T09:07:37.934Z,26.63
2018-12-01T09:10:07.951Z,24.83
2018-12-01T09:12:35.950Z,24.30
2018-12-01T09:15:06.245Z,26.53
2018-12-01T09:17:38.612Z,22.97
2018-12-01T09:20:10.183Z,23.73
2018-12-01T09:22:40.129Z,25.47
2018-12-01T09:25:09.875Z,23.40
2018-12-01T09:27:37.714Z,24.60
2018-12-01T09:30:16.276Z,22.70
2018-12-01T09:32:44.137Z,22.63
2018-12-01T09:35:11.697Z,20.47
2018-12-01T09:37:39.824Z,21.40
2018-12-01T09:40:08.710Z,19.03
2018-12-01T09:42:40.654Z,20.50
2018-12-01T09:45:12.922Z,18.37
2018-12-01T09:47:42.064Z,17.70
2018-12-01T09:50:16.065Z,18.60
2018-12-01T09:52:45.280Z,19.00
2018-12-01T09:55:15.946Z,19.37
2018-12-01T09:57:47.893Z,21.30
2018-12-01T10:00:17.943Z,18.93
2018-12-01T10:02:47.741Z,16.97
2018-12-01T10:05:17.153Z,19.33
2018-12-01T10:07:44.787Z,19.60
2018-12-01T10:10:16.080Z,19.10
2018-12-01T10:12:47.879Z,20.50
2018-12-01T10:15:19.166Z,18.00
2018-12-01T10:17:46.790Z,18.17
2018-12-01T10:20:17.913Z,18.60
2018-12-01T10:22:45.334Z,17.20
2018-12-01T10:25:13.970Z,17.03
2018-12-01T10:27:41.309Z,16.43
2018-12-01T10:30:11.693Z,17.37
2018-12-01T10:32:38.911Z,15.67
2018-12-01T10:35:07.486Z,17.30
2018-12-01T10:37:34.771Z,16.30
2018-12-01T10:40:02.970Z,15.97
2018-12-01T10:42:31.017Z,15.53
2018-12-01T10:44:58.226Z,14.70
2018-12-01T10:47:25.386Z,16.07
2018-12-01T10:49:52.604Z,16.03
2018-12-01T10:52:19.844Z,14.70
2018-12-01T10:54:47.832Z,14.70
2018-12-01T10:57:15.021Z,15.13
2018-12-01T10:59:42.293Z,15.93
2018-12-01T11:02:16.179Z,14.97
2018-12-01T11:04:43.522Z,15.63
2018-12-01T11:07:10.678Z,16.30
2018-12-01T11:09:37.807Z,15.50
2018-12-01T11:12:05.046Z,15.87
2018-12-01T11:14:32.374Z,15.17
2018-12-01T11:17:00.170Z,16.03
2018-12-01T11:19:27.497Z,15.40
2018-12-01T11:21:54.670Z,15.70
2018-12-01T11:24:21.904Z,15.40
2018-12-01T11:26:49.116Z,14.90
2018-12-01T11:29:16.364Z,15.53
2018-12-01T11:31:43.595Z,15.23
2018-12-01T11:34:11.024Z,16.50
2018-12-01T11:36:38.353Z,16.07
2018-12-01T11:39:07.622Z,15.47
2018-12-01T11:41:34.887Z,14.27
2018-12-01T11:44:03.081Z,15.07
2018-12-01T11:46:30.349Z,16.77
2018-12-01T11:48:57.683Z,14.90
2018-12-01T11:51:26.281Z,14.80
2018-12-01T11:53:54.370Z,14.33
2018-12-01T11:56:21.598Z,13.90
2018-12-01T11:58:48.766Z,15.60
2018-12-01T12:01:16.169Z,14.50
2018-12-01T12:03:43.402Z,13.33
2018-12-01T12:06:10.629Z,13.90
2018-12-01T12:08:37.931Z,15.10
2018-12-01T12:11:05.114Z,13.20
2018-12-01T12:13:32.386Z,12.77
2018-12-01T12:15:59.616Z,10.87
2018-12-01T12:18:26.887Z,10.90
2018-12-01T12:20:54.172Z,11.67
2018-12-01T12:23:21.527Z,11.00
2018-12-01T12:25:48.924Z,10.83
2018-12-01T12:28:16.114Z,11.60
2018-12-01T12:30:43.261Z,10.23
2018-12-01T12:33:11.642Z,11.40
2018-12-01T12:35:38.773Z,10.90
2018-12-01T12:38:07.096Z,12.03
2018-12-01T12:40:34.356Z,13.97
2018-12-01T12:43:02.755Z,13.57
2018-12-01T12:45:30.028Z,13.10
2018-12-01T12:48:00.666Z,14.00
2018-12-01T12:50:28.344Z,14.27
2018-12-01T12:52:55.927Z,14.40
2018-12-01T12:55:24.016Z,12.87
2018-12-01T12:57:51.319Z,13.83
2018-12-01T13:00:21.069Z,15.03
2018-12-01T13:02:50.591Z,16.50
2018-12-01T13:05:19.819Z,16.17
2018-12-01T13:07:47.230Z,15.97
2018-12-01T13:10:20.147Z,14.20
2018-12-01T13:12:47.400Z,16.93
2018-12-01T13:15:16.932Z,15.43
2018-12-01T13:17:44.537Z,15.30
2018-12-01T13:20:13.761Z,13.73
2018-12-01T13:22:41.047Z,14.53
2018-12-01T13:25:09.778Z,13.63
2018-12-01T13:27:37.665Z,14.60
2018-12-01T13:30:14.679Z,13.20
2018-12-01T13:32:41.928Z,12.50
2018-12-01T13:35:09.359Z,11.90
2018-12-01T13:37:36.808Z,14.30
2018-12-01T13:40:08.171Z,11.60
2018-12-01T13:42:37.465Z,13.10
2018-12-01T13:45:08.247Z,12.30
2018-12-01T13:47:36.746Z,10.97
2018-12-01T13:50:07.961Z,12.70
2018-12-01T13:52:35.404Z,11.33
2018-12-01T13:55:03.749Z,11.67
2018-12-01T13:57:31.047Z,11.20
2018-12-01T13:59:58.629Z,11.27
2018-12-01T14:02:26.656Z,11.57
2018-12-01T14:04:54.024Z,10.90
2018-12-01T14:07:21.885Z,11.47
2018-12-01T14:09:49.276Z,11.00
2018-12-01T14:12:16.673Z,11.30
2018-12-01T14:14:43.977Z,10.73
2018-12-01T14:17:11.410Z,9.07
2018-12-01T14:19:38.643Z,9.90
2018-12-01T14:22:05.915Z,9.97
2018-12-01T14:24:33.242Z,9.93
2018-12-01T14:27:00.636Z,8.80
2018-12-01T14:29:28.198Z,8.73
2018-12-01T14:31:56.170Z,8.50
2018-12-01T14:34:23.436Z,8.80
2018-12-01T14:36:50.814Z,9.70
2018-12-01T14:39:18.873Z,9.90
2018-12-01T14:41:46.343Z,6.93
2018-12-01T14:44:13.713Z,8.80
2018-12-01T14:46:40.963Z,8.90
2018-12-01T14:49:09.295Z,9.37
2018-12-01T14:51:36.665Z,9.03
2018-12-01T14:54:03.988Z,9.00
2018-12-01T14:56:31.719Z,7.67
2018-12-01T14:58:59.192Z,9.33
2018-12-01T15:01:28.743Z,7.60
2018-12-01T15:03:56.173Z,7.20
2018-12-01T15:06:23.479Z,8.07
2018-12-01T15:08:50.814Z,8.20
2018-12-01T15:11:18.129Z,8.03
2018-12-01T15:13:45.434Z,7.40
2018-12-01T15:16:13.271Z,7.80
2018-12-01T15:18:40.686Z,8.17
2018-12-01T15:21:08.358Z,8.93
2018-12-01T15:23:36.714Z,8.30
2018-12-01T15:26:04.781Z,8.37
2018-12-01T15:28:32.564Z,8.83
2018-12-01T15:30:59.971Z,9.07
2018-12-01T15:33:27.281Z,9.50
2018-12-01T15:35:54.601Z,9.10
2018-12-01T15:38:21.770Z,8.67
2018-12-01T15:40:50.245Z,7.70
2018-12-01T15:43:17.558Z,7.23
2018-12-01T15:45:45.204Z,7.67
2018-12-01T15:48:12.516Z,8.70
2018-12-01T15:50:39.861Z,8.00
2018-12-01T15:53:09.572Z,8.70
2018-12-01T15:55:36.816Z,8.70
2018-12-01T15:58:06.536Z,9.37
2018-12-01T16:00:34.102Z,8.10
2018-12-01T16:03:01.376Z,8.40
2018-12-01T16:05:28.550Z,9.87
2018-12-01T16:07:57.199Z,8.47
2018-12-01T16:10:24.638Z,9.10
2018-12-01T16:12:54.146Z,9.23
2018-12-01T16:15:27.641Z,10.43
2018-12-01T16:17:54.881Z,9.03
2018-12-01T16:20:25.968Z,9.47
2018-12-01T16:22:53.329Z,9.37
2018-12-01T16:25:24.877Z,9.13
2018-12-01T16:27:52.928Z,8.53
2018-12-01T16:30:27.881Z,9.53
2018-12-01T16:32:57.882Z,9.20
2018-12-01T16:35:25.211Z,9.40
2018-12-01T16:37:52.686Z,10.43
2018-12-01T16:40:38.779Z,10.30
2018-12-01T16:43:08.468Z,10.20
2018-12-01T16:45:35.795Z,9.73
2018-12-01T16:48:03.142Z,9.00
2018-12-01T16:53:05.976Z,9.83
2018-12-01T16:55:33.314Z,10.33
2018-12-01T16:58:00.737Z,9.87
2018-12-01T17:00:27.958Z,9.60
2018-12-01T17:03:01.036Z,10.67
2018-12-01T17:05:32.847Z,10.90
2018-12-01T17:08:00.546Z,10.00
2018-12-01T17:10:27.828Z,11.23
2018-12-01T17:12:56.029Z,10.13
2018-12-01T17:15:23.306Z,11.03
2018-12-01T17:17:50.643Z,10.90
2018-12-01T17:20:18.774Z,12.63
2018-12-01T17:22:48.417Z,13.13
2018-12-01T17:25:16.781Z,12.10
2018-12-01T17:27:44.633Z,11.57
2018-12-01T17:30:21.747Z,11.47
2018-12-01T17:32:49.350Z,10.47
2018-12-01T17:35:18.845Z,10.77
2018-12-01T17:37:48.524Z,10.40
2018-12-01T17:41:06.086Z,11.17
2018-12-01T17:43:35.843Z,10.27
2018-12-01T17:46:07.495Z,10.70
2018-12-01T17:48:34.927Z,10.27
2018-12-01T17:51:02.175Z,10.50
2018-12-01T17:53:29.455Z,9.27
2018-12-01T17:55:56.811Z,10.00
2018-12-01T17:58:27.001Z,9.00
2018-12-01T18:00:54.305Z,10.57
2018-12-01T18:03:21.571Z,9.27
2018-12-01T18:05:53.082Z,10.10
2018-12-01T18:08:22.213Z,10.00
2018-12-01T18:10:50.997Z,9.53
2018-12-01T18:13:18.433Z,10.50
2018-12-01T18:15:49.656Z,9.40
2018-12-01T18:18:16.929Z,9.40
2018-12-01T18:20:44.690Z,10.90
2018-12-01T18:23:14.086Z,9.93
2018-12-01T18:25:44.059Z,11.00
2018-12-01T18:28:13.599Z,8.80
2018-12-01T18:30:41.039Z,9.50
2018-12-01T18:33:14.065Z,10.63
2018-12-01T18:35:41.880Z,10.40
2018-12-01T18:38:10.507Z,9.90
2018-12-01T18:40:37.748Z,8.33
2018-12-01T18:43:05.615Z,8.87
2018-12-01T18:45:32.835Z,8.87
2018-12-01T18:48:00.077Z,8.07
2018-12-01T18:50:27.195Z,8.53
2018-12-01T18:52:56.331Z,9.47
2018-12-01T18:55:24.119Z,8.20
2018-12-01T18:57:51.875Z,7.90
2018-12-01T19:00:52.722Z,8.20
2018-12-01T19:03:21.696Z,7.63
2018-12-01T19:05:49.080Z,8.60
2018-12-01T19:08:16.288Z,7.87
2018-12-01T19:10:43.548Z,8.67
2018-12-01T19:13:10.738Z,8.40
2018-12-01T19:15:38.157Z,8.50
2018-12-01T19:18:06.901Z,8.90
2018-12-01T19:20:34.393Z,8.33
2018-12-01T19:23:03.031Z,9.40
2018-12-01T19:25:30.560Z,8.53
2018-12-01T19:27:57.879Z,9.47
2018-12-01T19:30:25.200Z,9.30
2018-12-01T19:32:54.906Z,9.23
2018-12-01T19:35:22.191Z,9.60
2018-12-01T19:37:54.650Z,9.13
2018-12-01T19:40:28.674Z,11.07
2018-12-01T19:42:57.356Z,10.63
2018-12-01T19:45:30.020Z,11.60
2018-12-01T19:47:59.026Z,10.67
2018-12-01T19:50:39.810Z,10.47
2018-12-01T19:53:10.722Z,9.20
2018-12-01T19:55:44.314Z,9.40
2018-12-01T19:58:15.980Z,10.20
2018-12-01T20:00:47.567Z,9.80
2018-12-01T20:03:18.840Z,9.90
2018-12-01T20:05:46.605Z,9.60
2018-12-01T20:08:14.851Z,9.17
2018-12-01T20:10:49.244Z,9.97
2018-12-01T20:13:20.014Z,9.63
2018-12-01T20:15:49.450Z,9.87
2018-12-01T20:18:24.447Z,9.57
2018-12-01T20:20:51.790Z,8.60
2018-12-01T20:23:19.215Z,9.30
2018-12-01T20:25:50.550Z,9.70
2018-12-01T20:28:18.390Z,9.70
2018-12-01T20:30:46.848Z,8.80
2018-12-01T20:33:14.821Z,8.63
2018-12-01T20:35:47.551Z,8.10
2018-12-01T20:38:21.871Z,8.40
2018-12-01T20:40:49.210Z,8.30
2018-12-01T20:43:16.710Z,7.70
2018-12-01T20:45:44.214Z,9.50
2018-12-01T20:48:11.678Z,9.00
2018-12-01T20:50:39.190Z,8.33
2018-12-01T20:53:07.491Z,7.60
2018-12-01T20:55:35.022Z,7.20
2018-12-01T20:58:03.909Z,8.67
2018-12-01T21:00:31.619Z,7.20
2018-12-01T21:02:58.826Z,8.50
2018-12-01T21:05:26.159Z,7.57
2018-12-01T21:07:54.694Z,6.03
2018-12-01T21:10:28.638Z,6.90
2018-12-01T21:12:57.434Z,7.10
2018-12-01T21:15:24.743Z,7.60
2018-12-01T21:17:55.531Z,6.40
2018-12-01T21:20:22.869Z,6.77
2018-12-01T21:22:52.591Z,6.27
2018-12-01T21:25:22.940Z,5.60
2018-12-01T21:27:50.425Z,6.00
2018-12-01T21:30:20.211Z,5.80
2018-12-01T21:32:49.929Z,7.30
2018-12-01T21:35:17.658Z,5.63
2018-12-01T21:37:45.019Z,5.37
2018-12-01T21:40:20.124Z,5.30
2018-12-01T21:42:48.019Z,5.60
2018-12-01T21:45:16.527Z,5.37
2018-12-01T21:47:43.707Z,5.73
2018-12-01T21:50:13.421Z,5.30
2018-12-01T21:52:41.712Z,5.23
2018-12-01T21:55:10.724Z,5.37
2018-12-01T21:57:39.147Z,5.77
2018-12-01T22:00:15.058Z,5.17
2018-12-01T22:02:43.107Z,4.70
2018-12-01T22:05:12.737Z,5.00
2018-12-01T22:07:40.211Z,5.73
2018-12-01T22:10:10.088Z,5.00
2018-12-01T22:12:37.331Z,5.47
2018-12-01T22:15:06.714Z,5.43
2018-12-01T22:17:33.939Z,4.80
2018-12-01T22:20:01.151Z,5.40
2018-12-01T22:22:29.771Z,5.37
2018-12-01T22:24:57.169Z,5.20
2018-12-01T22:27:24.340Z,4.90
2018-12-01T22:29:51.617Z,5.57
2018-12-01T22:32:22.544Z,4.70
2018-12-01T22:34:49.921Z,4.80
2018-12-01T22:37:17.205Z,4.43
2018-12-01T22:39:44.448Z,6.30
2018-12-01T22:42:13.243Z,5.20
2018-12-01T22:44:42.235Z,5.67
2018-12-01T22:47:10.206Z,5.40
2018-12-01T22:49:39.930Z,5.10
2018-12-01T22:52:07.322Z,4.93
2018-12-01T22:54:36.635Z,5.10
2018-12-01T22:57:05.003Z,5.13
2018-12-01T22:59:33.157Z,4.57
2018-12-01T23:02:00.352Z,4.83
2018-12-01T23:04:27.581Z,4.83
2018-12-01T23:06:54.827Z,4.77
2018-12-01T23:09:22.072Z,4.37
2018-12-01T23:11:50.367Z,5.17
2018-12-01T23:14:17.667Z,4.60
2018-12-01T23:16:44.953Z,4.40
2018-12-01T23:19:12.295Z,4.90
2018-12-01T23:21:39.504Z,5.50
2018-12-01T23:24:07.733Z,4.93
2018-12-01T23:26:37.307Z,5.13
2018-12-01T23:29:08.162Z,4.70
2018-12-01T23:31:36.615Z,5.53
2018-12-01T23:34:04.115Z,5.80
2018-12-01T23:36:32.177Z,5.50
2018-12-01T23:39:02.614Z,5.20
2018-12-01T23:41:29.939Z,5.03
2018-12-01T23:43:57.557Z,5.70
2018-12-01T23:46:24.859Z,5.10
2018-12-01T23:48:52.906Z,5.17
2018-12-01T23:51:20.102Z,5.27
2018-12-01T23:53:49.682Z,5.13
2018-12-01T23:56:17.192Z,5.10
2018-12-01T23:58:45.950Z,6.27
